MSC Annamaria — H3HN — position and weather

sailwx.info

Track history (hours):
 
Tides and Currents Weather Stations Pressure Air Temp Water Temp Dewpoint Dewpoint Depression Visibility Wind Speed Wind Dir Waves Ship Positions

MSC Annamaria

Last reported at 2015-May-18 16:08 UTC. Time now 2015-May-22 17:41 UTC.
Position N 40°38' E 018°16'.

Length 188 m; draft 6.8 m.

Type: Ship (hazmat cat B). MMSI: 353852000.

Date/timePositionNaut miles runAvg speedWind from/ knotsBaromVisibWave heightAir tempDewpointWater temp
2015-May-18 16:08N 40°38' E 018°16'813.0
2015-May-18 15:29N 40°32' E 018°24'1212.9
2015-May-18 14:33N 40°22' E 018°33'1413.7
2015-May-18 13:31N 40°09' E 018°39'1313.1
2015-May-18 12:33N 39°57' E 018°35'1413.1
2015-May-18 11:27N 39°43' E 018°29'1112.7
2015-May-18 10:33N 39°36' E 018°18'15811.0
2015-May-17 20:15N 38°03' E 015°33'912.3
2015-May-17 19:33N 38°11' E 015°36'123 3.5
2015-May-16 08:21N 37°22' E 017°58'1013.0
2015-May-16 07:33N 37°19' E 018°11'24911.8
2015-May-15 10:26N 36°39' E 023°18'1212.8
2015-May-15 09:32N 36°50' E 023°22'1312.6
2015-May-15 08:31N 37°02' E 023°27'1212.9
2015-May-15 07:33N 37°13' E 023°35'1312.9
2015-May-15 06:33N 37°25' E 023°40'1412.7
2015-May-15 05:28N 37°39' E 023°43'1212.9
2015-May-15 04:33N 37°49' E 023°36'8 7.8
2015-May-15 03:33N 37°57' E 023°36'0 0.0
2015-May-15 02:28N 37°57' E 023°36'0 0.0
2015-May-15 01:33N 37°57' E 023°36'0 0.0
2015-May-15 00:28N 37°57' E 023°36'0 0.0
2015-May-14 23:33N 37°57' E 023°36'0 0.0
2015-May-14 22:31N 37°57' E 023°36'0 0.0
2015-May-14 21:28N 37°57' E 023°36'0 0.0
2015-May-14 20:26N 37°57' E 023°36'0 0.0
2015-May-14 19:31N 37°57' E 023°36'0 0.0
2015-May-14 18:15N 37°57' E 023°36'0 0.0
2015-May-14 17:33N 37°57' E 023°36'0 0.0
2015-May-14 16:10N 37°57' E 023°36'0 0.0
2015-May-14 15:12N 37°57' E 023°36'0 0.0
2015-May-14 14:24N 37°57' E 023°36'0 0.0
2015-May-14 13:30N 37°57' E 023°36'0 0.0
2015-May-14 12:31N 37°57' E 023°36'0 0.0
2015-May-14 11:28N 37°57' E 023°36'3 2.9
2015-May-14 10:33N 37°55' E 023°37'9 8.6
2015-May-14 09:33N 37°47' E 023°42'1212.0
2015-May-14 08:31N 37°38' E 023°52'  
2015-May-09 23:34N 37°38' E 025°52'4812.0
2015-May-09 19:33N 37°02' E 026°32'1212.2
2015-May-09 18:33N 36°52' E 026°40'1211.9
2015-May-09 17:33N 36°42' E 026°49'1211.6
2015-May-09 16:33N 36°34' E 026°59'1711.5
2015-May-09 15:05N 36°31' E 027°19'611.8
2015-May-09 14:33N 36°30' E 027°27'1211.3
2015-May-09 13:29N 36°29' E 027°42'  
Track history (hours):
 
Tides and Currents Weather Stations Pressure Air Temp Water Temp Dewpoint Dewpoint Depression Visibility Wind Speed Wind Dir Waves Ship Positions

MSC Annamaria

Last reported at 2015-May-18 16:08 UTC. Time now 2015-May-22 17:41 UTC.
Position N 40°38' E 018°16'.

Length 188 m; draft 6.8 m.

Type: Ship (hazmat cat B). MMSI: 353852000.

Date/timePositionNaut miles runAvg speedWind from/ knotsBaromVisibWave heightAir tempDewpointWater temp
2015-May-18 16:08N 40°38' E 018°16'813.0
2015-May-18 15:29N 40°32' E 018°24'1212.9
2015-May-18 14:33N 40°22' E 018°33'1413.7
2015-May-18 13:31N 40°09' E 018°39'1313.1
2015-May-18 12:33N 39°57' E 018°35'1413.1
2015-May-18 11:27N 39°43' E 018°29'1112.7
2015-May-18 10:33N 39°36' E 018°18'15811.0
2015-May-17 20:15N 38°03' E 015°33'912.3
2015-May-17 19:33N 38°11' E 015°36'123 3.5
2015-May-16 08:21N 37°22' E 017°58'1013.0
2015-May-16 07:33N 37°19' E 018°11'24911.8
2015-May-15 10:26N 36°39' E 023°18'1212.8
2015-May-15 09:32N 36°50' E 023°22'1312.6
2015-May-15 08:31N 37°02' E 023°27'1212.9
2015-May-15 07:33N 37°13' E 023°35'1312.9
2015-May-15 06:33N 37°25' E 023°40'1412.7
2015-May-15 05:28N 37°39' E 023°43'1212.9
2015-May-15 04:33N 37°49' E 023°36'8 7.8
2015-May-15 03:33N 37°57' E 023°36'0 0.0
2015-May-15 02:28N 37°57' E 023°36'0 0.0
2015-May-15 01:33N 37°57' E 023°36'0 0.0
2015-May-15 00:28N 37°57' E 023°36'0 0.0
2015-May-14 23:33N 37°57' E 023°36'0 0.0
2015-May-14 22:31N 37°57' E 023°36'0 0.0
2015-May-14 21:28N 37°57' E 023°36'0 0.0
2015-May-14 20:26N 37°57' E 023°36'0 0.0
2015-May-14 19:31N 37°57' E 023°36'0 0.0
2015-May-14 18:15N 37°57' E 023°36'0 0.0
2015-May-14 17:33N 37°57' E 023°36'0 0.0
2015-May-14 16:10N 37°57' E 023°36'0 0.0
2015-May-14 15:12N 37°57' E 023°36'0 0.0
2015-May-14 14:24N 37°57' E 023°36'0 0.0
2015-May-14 13:30N 37°57' E 023°36'0 0.0
2015-May-14 12:31N 37°57' E 023°36'0 0.0
2015-May-14 11:28N 37°57' E 023°36'3 2.9
2015-May-14 10:33N 37°55' E 023°37'9 8.6
2015-May-14 09:33N 37°47' E 023°42'1212.0
2015-May-14 08:31N 37°38' E 023°52'  
2015-May-09 23:34N 37°38' E 025°52'4812.0
2015-May-09 19:33N 37°02' E 026°32'1212.2
2015-May-09 18:33N 36°52' E 026°40'1211.9
2015-May-09 17:33N 36°42' E 026°49'1211.6
2015-May-09 16:33N 36°34' E 026°59'1711.5
2015-May-09 15:05N 36°31' E 027°19'611.8
2015-May-09 14:33N 36°30' E 027°27'1211.3
2015-May-09 13:29N 36°29' E 027°42'  

Dump ship's entire track history